Time;durP1;ratioP1;P1;durP2;ratioP2;P2;SDS_P1;SDS_P2;PMS_P1;PMS_P2;Temp;Humidity;BMP_temperature;BMP_pressure;BME280_temperature;BME280_humidity;BME280_pressure;Samples;Min_cycle;Max_cycle;Signal;HPM_P1;HPM_P2
2024/01/15 00:00:10;;;;;;;;;40.25;27.50;;;;;2.15;72.63;100735.84;4993784;28;45346;-40
2024/01/15 00:02:36;;;;;;;;;39.25;34.25;;;;;2.23;72.73;100752.84;4995073;28;45315;-38
2024/01/15 00:05:01;;;;;;;;;42.25;31.75;;;;;2.27;72.82;100750.88;4995494;28;45361;-38
2024/01/15 00:07:26;;;;;;;;;39.75;31.50;;;;;2.29;72.64;100742.91;4995199;28;46100;-40
2024/01/15 00:09:52;;;;;;;;;27.25;23.50;;;;;2.22;72.66;100716.19;4995203;28;45252;-40
2024/01/15 00:12:17;;;;;;;;;45.75;32.50;;;;;2.31;72.38;100723.50;4993176;28;45381;-40
2024/01/15 00:14:42;;;;;;;;;40.75;30.00;;;;;2.31;73.41;100727.91;4994816;28;45286;-40
2024/01/15 00:17:08;;;;;;;;;29.00;22.25;;;;;2.32;72.82;100717.31;4994974;28;46283;-39
2024/01/15 00:19:33;;;;;;;;;30.50;25.25;;;;;2.33;72.70;100707.66;4994925;28;45230;-40
2024/01/15 00:21:59;;;;;;;;;38.00;31.75;;;;;2.34;73.04;100706.72;4994721;28;45183;-38
2024/01/15 00:24:24;;;;;;;;;37.50;24.00;;;;;2.25;72.76;100685.34;4995360;28;45616;-41
2024/01/15 00:26:50;;;;;;;;;41.00;35.00;;;;;2.29;73.03;100699.13;4994741;28;47438;-39
2024/01/15 00:29:15;;;;;;;;;29.00;24.25;;;;;2.38;73.35;100705.59;4995089;28;45249;-39
2024/01/15 00:31:40;;;;;;;;;40.00;32.50;;;;;2.29;73.32;100686.00;4995016;28;45205;-40
2024/01/15 00:34:06;;;;;;;;;28.00;24.00;;;;;2.41;73.36;100705.41;4994863;28;45342;-39
2024/01/15 00:36:31;;;;;;;;;40.50;26.75;;;;;2.39;72.92;100694.97;4994582;28;45339;-40
2024/01/15 00:38:56;;;;;;;;;36.25;25.00;;;;;2.43;72.99;100695.63;4994742;28;45386;-40
2024/01/15 00:41:22;;;;;;;;;43.50;31.75;;;;;2.41;73.41;100693.13;4994870;28;45458;-39
2024/01/15 00:43:49;;;;;;;;;43.25;34.00;;;;;2.42;73.23;100679.06;4994844;28;45319;-48
2024/01/15 00:46:15;;;;;;;;;40.00;31.00;;;;;2.40;73.06;100672.19;4994729;28;45439;-39
2024/01/15 00:48:40;;;;;;;;;54.50;37.00;;;;;2.48;72.88;100680.44;4994218;28;45491;-39
2024/01/15 00:51:05;;;;;;;;;38.25;29.75;;;;;2.49;73.03;100684.78;4994626;28;45762;-39
2024/01/15 00:53:31;;;;;;;;;54.25;41.50;;;;;2.49;73.51;100672.47;4994782;28;45304;-41
2024/01/15 00:55:56;;;;;;;;;35.50;26.00;;;;;2.52;73.03;100667.97;4994388;28;45355;-40
2024/01/15 00:58:21;;;;;;;;;39.50;28.50;;;;;2.48;73.25;100670.78;4994480;28;45437;-39
2024/01/15 01:00:47;;;;;;;;;32.25;23.50;;;;;2.48;72.94;100668.16;4994438;28;45994;-38
2024/01/15 01:03:12;;;;;;;;;23.25;22.50;;;;;2.54;72.76;100674.81;4994774;28;45354;-40
2024/01/15 01:05:38;;;;;;;;;28.00;25.25;;;;;2.53;72.63;100664.38;4994084;28;46021;-40
2024/01/15 01:08:03;;;;;;;;;46.75;32.75;;;;;2.54;72.46;100650.34;4994791;28;45392;-38
2024/01/15 01:10:29;;;;;;;;;41.00;25.75;;;;;2.50;73.23;100658.41;4994568;28;45322;-40
2024/01/15 01:12:54;;;;;;;;;31.75;23.00;;;;;2.44;72.47;100650.94;4994875;28;45423;-40
2024/01/15 01:15:20;;;;;;;;;42.75;35.00;;;;;2.49;72.80;100659.34;4994389;28;45449;-39
2024/01/15 01:17:46;;;;;;;;;41.50;30.25;;;;;2.48;72.59;100648.94;4994358;28;45322;-40
2024/01/15 01:20:11;;;;;;;;;22.75;17.00;;;;;2.48;72.64;100662.06;4994444;28;45220;-40
2024/01/15 01:22:37;;;;;;;;;36.00;27.75;;;;;2.50;72.48;100665.44;4994527;28;45472;-40
2024/01/15 01:25:03;;;;;;;;;39.00;29.75;;;;;2.39;72.78;100644.25;4993919;28;46395;-40
2024/01/15 01:27:28;;;;;;;;;39.50;28.00;;;;;2.50;73.03;100663.66;4994288;28;45487;-40
2024/01/15 01:29:54;;;;;;;;;33.25;28.75;;;;;2.47;73.06;100663.84;4993106;28;45409;-39
2024/01/15 01:32:19;;;;;;;;;39.50;31.00;;;;;2.47;73.00;100658.59;4994398;28;45255;-40
2024/01/15 01:34:45;;;;;;;;;39.25;34.50;;;;;2.44;73.01;100656.19;4994180;28;46260;-41
2024/01/15 01:37:13;;;;;;;;;56.00;37.50;;;;;2.40;72.60;100632.81;4993890;28;45466;-40
2024/01/15 01:39:38;;;;;;;;;34.50;31.00;;;;;2.51;73.25;100648.75;4994370;28;45289;-41
2024/01/15 01:42:04;;;;;;;;;44.50;35.00;;;;;2.50;72.90;100642.66;4994227;28;45738;-37
2024/01/15 01:44:29;;;;;;;;;39.75;31.50;;;;;2.49;72.97;100653.25;4993896;28;46153;-40
2024/01/15 01:46:56;;;;;;;;;38.50;26.75;;;;;2.48;72.57;100651.56;4994146;28;45247;-40
2024/01/15 01:49:24;;;;;;;;;32.75;24.00;;;;;2.44;72.83;100637.81;4993771;28;45390;-40
2024/01/15 01:51:50;;;;;;;;;34.75;30.75;;;;;2.35;73.19;100621.78;4994018;28;45509;-40
2024/01/15 01:54:16;;;;;;;;;44.25;30.50;;;;;2.42;72.31;100644.09;4993866;28;45401;-39
2024/01/15 01:56:42;;;;;;;;;31.75;30.25;;;;;2.35;73.11;100632.28;4993855;28;45440;-41
2024/01/15 01:59:11;;;;;;;;;32.00;27.25;;;;;2.40;73.36;100640.69;4994084;28;45337;-40
2024/01/15 02:01:36;;;;;;;;;28.00;22.25;;;;;2.40;73.21;100630.19;4994148;28;45519;-40
2024/01/15 02:04:03;;;;;;;;;21.00;14.75;;;;;2.38;72.33;100635.56;4993450;28;45416;-39
2024/01/15 02:06:28;;;;;;;;;45.25;31.50;;;;;2.38;73.02;100625.06;4993763;28;45347;-40
2024/01/15 02:08:54;;;;;;;;;34.25;27.50;;;;;2.39;73.00;100628.50;4993809;28;45279;-40
2024/01/15 02:11:19;;;;;;;;;40.25;34.50;;;;;2.38;73.05;100634.72;4994008;28;45239;-40
2024/01/15 02:13:45;;;;;;;;;50.75;38.00;;;;;2.38;73.61;100621.59;5078377;27;48620;-40
2024/01/15 02:16:10;;;;;;;;;29.00;21.25;;;;;2.39;73.30;100623.25;4993651;28;45449;-39
2024/01/15 02:18:42;;;;;;;;;31.75;28.25;;;;;2.36;73.51;100607.69;4993656;28;45314;-40
2024/01/15 02:21:09;;;;;;;;;30.00;21.50;;;;;2.36;72.86;100603.31;4993719;28;45480;-38
2024/01/15 02:23:34;;;;;;;;;33.50;28.25;;;;;2.34;73.78;100596.47;4993252;28;47258;-40
2024/01/15 02:25:59;;;;;;;;;30.00;23.00;;;;;2.32;73.69;100596.56;4993446;28;45335;-40
2024/01/15 02:28:24;;;;;;;;;30.50;24.00;;;;;2.34;73.92;100586.81;4993824;28;45382;-41
2024/01/15 02:30:50;;;;;;;;;34.50;31.00;;;;;2.32;74.01;100580.84;4993656;28;45393;-40
2024/01/15 02:33:15;;;;;;;;;37.25;28.00;;;;;2.33;73.97;100579.03;4993118;28;52930;-43
2024/01/15 02:35:41;;;;;;;;;43.50;30.50;;;;;2.33;73.70;100573.78;4993313;28;45438;-40
2024/01/15 02:38:06;;;;;;;;;33.00;29.75;;;;;2.32;73.93;100579.97;5011449;28;45353;-40
2024/01/15 02:40:32;;;;;;;;;42.50;28.50;;;;;2.30;73.94;100577.44;4996388;28;45355;-40
2024/01/15 02:42:58;;;;;;;;;36.00;30.50;;;;;2.37;73.96;100585.78;4996211;28;47238;-38
2024/01/15 02:45:24;;;;;;;;;29.75;25.00;;;;;2.30;74.26;100577.44;4996048;28;45391;-39
2024/01/15 02:47:49;;;;;;;;;34.75;30.75;;;;;2.39;74.89;100597.84;4996155;28;45476;-38
2024/01/15 02:50:15;;;;;;;;;39.00;28.25;;;;;2.42;74.74;100591.56;4996663;28;45300;-38
2024/01/15 02:52:42;;;;;;;;;47.25;36.50;;;;;2.44;74.61;100590.53;4995933;28;46650;-40
2024/01/15 02:55:08;;;;;;;;;32.25;24.50;;;;;2.49;74.32;100590.25;4996239;28;45467;-39
2024/01/15 02:57:33;;;;;;;;;40.25;31.00;;;;;2.50;74.37;100599.81;4996163;28;45395;-39
2024/01/15 02:59:59;;;;;;;;;39.25;27.00;;;;;2.52;74.61;100597.06;4996337;28;45369;-41
2024/01/15 03:02:24;;;;;;;;;35.50;33.00;;;;;2.48;74.36;100591.16;4995814;28;47167;-40
2024/01/15 03:04:49;;;;;;;;;40.75;26.75;;;;;2.55;73.51;100592.47;4996101;28;45408;-40
2024/01/15 03:07:15;;;;;;;;;32.75;26.50;;;;;2.51;73.80;100583.09;4996074;28;45437;-40
2024/01/15 03:09:40;;;;;;;;;31.00;25.25;;;;;2.59;74.51;100593.94;4996287;28;45538;-39
2024/01/15 03:12:06;;;;;;;;;29.25;24.50;;;;;2.56;74.54;100582.81;4995735;28;47496;-40
2024/01/15 03:14:31;;;;;;;;;38.00;30.00;;;;;2.64;74.84;100602.38;4995796;28;45456;-41
2024/01/15 03:16:57;;;;;;;;;24.00;17.00;;;;;2.66;73.98;100599.66;4996043;28;45350;-40
2024/01/15 03:19:22;;;;;;;;;37.00;27.75;;;;;2.69;74.11;100596.81;4996063;28;45495;-40
2024/01/15 03:21:47;;;;;;;;;38.50;26.75;;;;;2.73;74.20;100601.78;4995319;28;47511;-40
2024/01/15 03:24:13;;;;;;;;;38.25;25.25;;;;;2.74;74.01;100602.63;4995413;28;45279;-41
2024/01/15 03:26:39;;;;;;;;;33.75;23.75;;;;;2.68;74.56;100582.84;4995838;28;45405;-39
2024/01/15 03:29:04;;;;;;;;;31.00;24.50;;;;;2.80;74.35;100599.59;4996016;28;45319;-37
2024/01/15 03:31:29;;;;;;;;;34.00;30.50;;;;;2.81;74.90;100597.81;4995527;28;47407;-40
2024/01/15 03:33:55;;;;;;;;;32.00;25.00;;;;;2.82;74.59;100605.56;4995593;28;45239;-40
2024/01/15 03:36:20;;;;;;;;;42.50;29.25;;;;;2.85;75.20;100608.00;4995726;28;45344;-40
2024/01/15 03:38:45;;;;;;;;;21.00;19.50;;;;;2.77;74.40;100586.66;4995861;28;45412;-39
2024/01/15 03:41:11;;;;;;;;;25.25;22.25;;;;;2.91;74.61;100610.25;4995281;28;45323;-39
2024/01/15 03:43:36;;;;;;;;;27.75;26.00;;;;;2.95;75.22;100601.22;5010570;28;45293;-39
2024/01/15 03:46:02;;;;;;;;;23.00;12.50;;;;;2.97;74.49;100603.75;4995427;28;45409;-41
2024/01/15 03:48:27;;;;;;;;;32.50;27.00;;;;;2.89;74.69;100587.63;4995529;28;45374;-39
2024/01/15 03:50:52;;;;;;;;;26.50;25.25;;;;;3.02;74.58;100606.06;4995229;28;45473;-38
2024/01/15 03:53:18;;;;;;;;;27.00;20.50;;;;;3.03;74.87;100605.94;4995211;28;45393;-39
2024/01/15 03:55:43;;;;;;;;;32.25;21.25;;;;;2.80;74.98;100556.72;4995561;28;45357;-40
2024/01/15 03:58:08;;;;;;;;;34.75;23.50;;;;;3.09;74.88;100595.03;4995623;28;45537;-39
2024/01/15 04:00:34;;;;;;;;;33.50;22.50;;;;;3.10;75.47;100588.84;4995338;28;46467;-41
2024/01/15 04:03:00;;;;;;;;;35.00;18.50;;;;;3.10;75.81;100580.94;4995181;28;46132;-39
2024/01/15 04:05:25;;;;;;;;;19.25;18.25;;;;;3.15;75.50;100586.72;4995490;28;45363;-38
2024/01/15 04:07:50;;;;;;;;;26.00;19.50;;;;;3.16;75.46;100583.19;4995537;28;45437;-40
2024/01/15 04:10:16;;;;;;;;;22.00;21.50;;;;;3.14;75.63;100563.19;4995253;28;45417;-39
2024/01/15 04:12:41;;;;;;;;;30.50;23.00;;;;;3.17;75.01;100557.75;4995025;28;45464;-39
2024/01/15 04:15:07;;;;;;;;;23.25;18.25;;;;;3.15;75.14;100549.09;4995104;28;45398;-40
2024/01/15 04:17:32;;;;;;;;;30.25;23.25;;;;;3.20;75.79;100552.25;4995267;28;45395;-39
2024/01/15 04:19:57;;;;;;;;;38.25;26.50;;;;;3.17;76.23;100542.81;4995200;28;46460;-40
2024/01/15 04:22:23;;;;;;;;;30.50;23.25;;;;;3.23;75.15;100549.41;4994951;28;45405;-40
2024/01/15 04:24:48;;;;;;;;;27.25;21.25;;;;;3.22;76.04;100553.84;4995037;28;45421;-39
2024/01/15 04:27:14;;;;;;;;;16.75;16.75;;;;;3.23;75.83;100544.16;4995359;28;45376;-40
2024/01/15 04:29:39;;;;;;;;;30.75;23.25;;;;;3.25;75.25;100544.91;4994776;28;46203;-38
2024/01/15 04:32:05;;;;;;;;;27.00;16.75;;;;;3.21;75.35;100532.94;4994829;28;45303;-39
2024/01/15 04:34:30;;;;;;;;;26.25;23.75;;;;;3.25;76.17;100556.28;4995111;28;45389;-41
2024/01/15 04:36:55;;;;;;;;;27.00;20.25;;;;;3.26;75.97;100536.06;4993611;28;45223;-40
2024/01/15 04:39:22;;;;;;;;;26.00;21.00;;;;;3.28;76.07;100536.81;4993436;28;46455;-39
2024/01/15 04:41:47;;;;;;;;;30.75;21.75;;;;;3.28;75.79;100528.91;4994649;28;45747;-40
2024/01/15 04:44:12;;;;;;;;;22.50;14.50;;;;;3.23;75.90;100534.50;4994706;28;45219;-39
2024/01/15 04:46:38;;;;;;;;;25.00;21.50;;;;;3.26;75.41;100528.19;4994926;28;45335;-39
2024/01/15 04:49:03;;;;;;;;;17.25;15.25;;;;;3.26;75.98;100525.56;4994278;28;46378;-38
2024/01/15 04:51:28;;;;;;;;;24.50;21.00;;;;;3.28;75.72;100523.66;4994968;28;45455;-40
2024/01/15 04:53:54;;;;;;;;;29.25;20.00;;;;;3.17;75.74;100506.00;4994260;28;45457;-39
2024/01/15 04:56:19;;;;;;;;;32.25;19.00;;;;;3.27;76.25;100523.78;5009934;28;45467;-39
2024/01/15 04:58:44;;;;;;;;;31.00;19.00;;;;;3.28;76.06;100530.69;4993469;28;45462;-40
2024/01/15 05:01:10;;;;;;;;;30.00;18.25;;;;;3.25;76.98;100526.50;5079703;27;45419;-39
2024/01/15 05:03:35;;;;;;;;;30.25;19.75;;;;;3.29;75.99;100519.22;4994361;28;45312;-39
2024/01/15 05:06:01;;;;;;;;;25.00;15.50;;;;;3.26;76.78;100520.31;4994545;28;45371;-40
2024/01/15 05:08:26;;;;;;;;;27.25;18.00;;;;;3.28;76.51;100522.81;4994305;28;49178;-40
2024/01/15 05:10:51;;;;;;;;;22.00;18.50;;;;;2.96;76.87;100470.69;4994228;28;45378;-38
2024/01/15 05:13:17;;;;;;;;;25.50;19.00;;;;;3.27;77.50;100516.72;4994602;28;45458;-37
2024/01/15 05:15:42;;;;;;;;;26.25;20.25;;;;;3.29;77.01;100521.88;4994343;28;45635;-39
2024/01/15 05:18:08;;;;;;;;;20.50;17.25;;;;;3.29;76.69;100525.38;4994181;28;46470;-39
2024/01/15 05:20:33;;;;;;;;;20.50;14.50;;;;;3.15;76.63;100502.63;4994330;28;45219;-39
2024/01/15 05:22:58;;;;;;;;;29.25;17.50;;;;;3.28;76.81;100518.41;4994186;28;45363;-39
2024/01/15 05:25:24;;;;;;;;;21.00;18.25;;;;;3.28;77.47;100507.88;4994432;28;45246;-38
2024/01/15 05:27:49;;;;;;;;;20.25;19.75;;;;;3.29;76.53;100508.72;4993818;28;53163;-38
2024/01/15 05:30:15;;;;;;;;;24.25;20.75;;;;;3.24;77.01;100501.16;4994219;28;45427;-39
2024/01/15 05:32:40;;;;;;;;;23.25;18.00;;;;;3.31;76.62;100509.47;4994298;28;45296;-39
2024/01/15 05:35:05;;;;;;;;;21.75;16.50;;;;;3.25;76.74;100506.31;4994468;28;45295;-40
2024/01/15 05:37:31;;;;;;;;;18.75;17.25;;;;;3.32;76.80;100519.03;4993808;28;46440;-39
2024/01/15 05:39:56;;;;;;;;;25.00;18.00;;;;;3.28;76.70;100505.25;4994053;28;45293;-38
2024/01/15 05:42:22;;;;;;;;;25.50;16.25;;;;;3.34;77.10;100507.47;4993963;28;45341;-39
2024/01/15 05:44:47;;;;;;;;;17.75;15.50;;;;;3.34;77.19;100509.28;4994082;28;45317;-39
2024/01/15 05:47:12;;;;;;;;;25.00;21.00;;;;;3.31;77.00;100501.59;4993903;28;45641;-38
2024/01/15 05:49:38;;;;;;;;;20.25;16.75;;;;;3.36;77.37;100510.81;4993779;28;45374;-39
2024/01/15 05:52:04;;;;;;;;;24.75;16.25;;;;;3.37;77.86;100509.03;4993936;28;45324;-38
2024/01/15 05:54:29;;;;;;;;;21.00;17.50;;;;;3.37;76.97;100501.16;4994017;28;45511;-40
2024/01/15 05:56:54;;;;;;;;;22.50;19.00;;;;;3.38;77.86;100495.81;4993634;28;46233;-39
2024/01/15 05:59:20;;;;;;;;;31.00;24.00;;;;;3.40;77.56;100491.25;4993713;28;45501;-40
2024/01/15 06:01:45;;;;;;;;;24.50;16.75;;;;;3.42;77.99;100496.44;4993953;28;45313;-38
2024/01/15 06:04:10;;;;;;;;;21.50;13.00;;;;;3.40;77.91;100486.00;4993948;28;45372;-39
2024/01/15 06:06:36;;;;;;;;;21.00;19.75;;;;;3.45;77.25;100498.81;4993573;28;45475;-39
2024/01/15 06:09:05;;;;;;;;;27.00;20.75;;;;;3.43;78.30;100491.06;4993626;28;45381;-38
2024/01/15 06:11:32;;;;;;;;;17.25;12.00;;;;;3.44;78.08;100498.00;4992378;28;45434;-39
2024/01/15 06:13:57;;;;;;;;;22.75;17.75;;;;;3.47;77.61;100496.94;4993880;28;45521;-39
2024/01/15 06:16:23;;;;;;;;;21.00;16.00;;;;;3.48;77.35;100503.88;4993548;28;46138;-39
2024/01/15 06:18:48;;;;;;;;;22.00;17.75;;;;;3.50;77.54;100492.31;4993434;28;45500;-40
2024/01/15 06:21:14;;;;;;;;;27.00;20.00;;;;;3.50;78.32;100492.31;4993546;28;45417;-37
2024/01/15 06:23:40;;;;;;;;;28.00;19.00;;;;;3.51;77.76;100487.91;4993464;28;45447;-39
2024/01/15 06:26:05;;;;;;;;;24.25;17.00;;;;;3.54;78.18;100489.44;4993282;28;45467;-40
2024/01/15 06:28:30;;;;;;;;;26.75;16.50;;;;;3.54;78.28;100481.56;4993195;28;45402;-39
2024/01/15 06:30:57;;;;;;;;;34.00;20.00;;;;;3.59;77.28;100493.47;4993373;28;45495;-39
2024/01/15 06:33:23;;;;;;;;;26.50;21.00;;;;;3.59;77.62;100487.34;4993420;28;45288;-39
2024/01/15 06:35:49;;;;;;;;;23.75;18.00;;;;;3.58;78.30;100493.53;4992865;28;45349;-39
2024/01/15 06:38:14;;;;;;;;;28.50;20.25;;;;;3.61;77.96;100496.81;4993119;28;45372;-39
2024/01/15 06:40:45;;;;;;;;;23.50;16.25;;;;;3.62;78.24;100492.38;4993159;28;45336;-39
2024/01/15 06:43:13;;;;;;;;;24.50;17.75;;;;;3.63;77.37;100494.09;4993307;28;45552;-40
2024/01/15 06:45:38;;;;;;;;;20.50;20.00;;;;;3.64;77.28;100499.22;4992973;28;45379;-39
2024/01/15 06:48:04;;;;;;;;;19.00;17.00;;;;;3.64;77.41;100499.22;4992699;28;45457;-40
2024/01/15 06:50:29;;;;;;;;;19.50;17.25;;;;;3.69;78.04;100507.63;4993231;28;45442;-40
2024/01/15 06:52:54;;;;;;;;;23.25;18.50;;;;;3.69;78.29;100494.47;4991559;28;45257;-39
2024/01/15 06:55:20;;;;;;;;;14.00;8.50;;;;;3.70;77.42;100490.06;4992547;28;46977;-40
2024/01/15 06:57:45;;;;;;;;;25.00;13.50;;;;;3.64;78.29;100483.44;4992522;28;49950;-39
2024/01/15 07:00:11;;;;;;;;;24.00;16.75;;;;;3.74;77.48;100505.50;4992771;28;45307;-40
2024/01/15 07:02:36;;;;;;;;;20.75;15.75;;;;;3.72;77.37;100509.22;4992876;28;45429;-39
2024/01/15 07:05:04;;;;;;;;;23.25;18.75;;;;;3.73;78.10;100505.63;4992683;28;47143;-39
2024/01/15 07:07:30;;;;;;;;;27.75;21.00;;;;;3.75;78.16;100509.84;4992800;28;45358;-39
2024/01/15 07:09:55;;;;;;;;;24.00;17.00;;;;;3.77;78.26;100508.88;4992448;28;45563;-39
2024/01/15 07:12:21;;;;;;;;;15.50;13.75;;;;;3.68;77.37;100486.69;4991852;28;45494;-39
2024/01/15 07:14:46;;;;;;;;;23.75;19.50;;;;;3.77;78.12;100501.81;4992528;28;46473;-38
2024/01/15 07:17:11;;;;;;;;;24.75;16.75;;;;;3.73;77.93;100495.94;4992168;28;45325;-40
2024/01/15 07:19:37;;;;;;;;;19.75;16.50;;;;;3.77;77.72;100490.47;4992443;28;45291;-40
2024/01/15 07:22:03;;;;;;;;;22.75;17.00;;;;;3.79;77.78;100493.81;4993156;28;45409;-41
2024/01/15 07:24:28;;;;;;;;;29.25;18.25;;;;;3.75;78.16;100488.78;4994618;28;46088;-39
2024/01/15 07:26:53;;;;;;;;;23.75;16.50;;;;;3.80;77.67;100506.03;4995315;28;45333;-40
2024/01/15 07:29:19;;;;;;;;;28.00;16.75;;;;;3.80;77.46;100511.31;4995480;28;45354;-39
2024/01/15 07:31:51;;;;;;;;;30.50;21.25;;;;;3.81;77.75;100503.28;4995547;28;45333;-40
2024/01/15 07:34:17;;;;;;;;;21.75;19.25;;;;;3.74;77.64;100505.50;4975805;28;45494;-40
2024/01/15 07:36:45;;;;;;;;;20.00;19.00;;;;;3.81;78.25;100529.59;4990056;28;45500;-40
2024/01/15 07:39:11;;;;;;;;;21.50;15.00;;;;;3.84;77.92;100525.94;4994328;28;45430;-39
2024/01/15 07:41:36;;;;;;;;;26.50;20.00;;;;;3.84;78.31;100533.81;4995297;28;45389;-39
2024/01/15 07:44:02;;;;;;;;;24.75;18.00;;;;;3.88;77.72;100527.41;4994848;28;46111;-39
2024/01/15 07:46:28;;;;;;;;;24.50;20.50;;;;;3.80;77.92;100511.31;4994528;28;46464;-40
2024/01/15 07:48:56;;;;;;;;;27.25;19.25;;;;;3.87;77.92;100523.06;4994498;28;45368;-39
2024/01/15 07:51:25;;;;;;;;;29.50;20.00;;;;;3.88;77.40;100528.22;4994759;28;45306;-39
2024/01/15 07:53:53;;;;;;;;;28.50;25.25;;;;;3.84;77.94;100524.13;4994470;28;46322;-40
2024/01/15 07:56:18;;;;;;;;;24.75;21.00;;;;;3.91;78.06;100538.50;4994695;28;45440;-37
2024/01/15 07:58:44;;;;;;;;;19.25;16.50;;;;;3.90;77.28;100542.09;4994595;28;45477;-39
2024/01/15 08:01:09;;;;;;;;;24.50;17.75;;;;;3.92;76.98;100547.28;4994870;28;46024;-39
2024/01/15 08:03:34;;;;;;;;;20.00;19.00;;;;;3.88;77.34;100535.28;4994326;28;45355;-40
2024/01/15 08:06:00;;;;;;;;;18.25;13.50;;;;;3.92;77.68;100542.84;4994648;28;45412;-40
2024/01/15 08:08:28;;;;;;;;;27.50;17.75;;;;;3.90;77.34;100541.25;5079694;27;45820;-40
2024/01/15 08:10:54;;;;;;;;;23.75;16.75;;;;;3.94;77.50;100546.19;4994232;28;45343;-40
2024/01/15 08:13:20;;;;;;;;;16.75;13.00;;;;;3.97;76.89;100550.41;4994668;28;46338;-42
2024/01/15 08:15:45;;;;;;;;;25.75;19.50;;;;;3.98;77.11;100552.09;4994421;28;45402;-39
2024/01/15 08:18:11;;;;;;;;;28.00;17.25;;;;;3.87;77.48;100530.94;4994423;28;45271;-40
2024/01/15 08:20:36;;;;;;;;;24.75;18.25;;;;;3.92;76.83;100544.66;4994905;28;45493;-40
2024/01/15 08:23:02;;;;;;;;;21.00;16.50;;;;;3.70;77.43;100511.09;4993965;28;46361;-39
2024/01/15 08:25:27;;;;;;;;;28.75;20.75;;;;;3.99;77.12;100556.41;4994354;28;45349;-39
2024/01/15 08:27:53;;;;;;;;;17.50;16.25;;;;;3.98;77.14;100552.94;4994428;28;45219;-48
2024/01/15 08:30:18;;;;;;;;;29.75;21.25;;;;;4.02;77.25;100552.72;4994447;28;45329;-40
2024/01/15 08:32:44;;;;;;;;;21.75;15.00;;;;;3.99;76.62;100551.13;4994120;28;45687;-39
2024/01/15 08:35:10;;;;;;;;;32.50;23.50;;;;;4.04;76.17;100551.63;4992933;28;45767;-40
2024/01/15 08:37:36;;;;;;;;;29.75;18.25;;;;;4.05;76.53;100555.97;4994297;28;45343;-39
2024/01/15 08:40:02;;;;;;;;;26.75;21.25;;;;;4.07;76.54;100567.22;4994236;28;45375;-40
2024/01/15 08:42:28;;;;;;;;;17.50;13.00;;;;;4.07;76.60;100563.75;4993590;28;46234;-38
2024/01/15 08:44:53;;;;;;;;;24.00;17.75;;;;;4.03;75.76;100560.50;4992534;28;45385;-39
2024/01/15 08:47:18;;;;;;;;;19.50;13.00;;;;;4.06;76.11;100565.53;4992739;28;45310;-38
2024/01/15 08:49:45;;;;;;;;;18.00;15.25;;;;;4.12;75.90;100585.31;4992613;28;45778;-40
2024/01/15 08:52:10;;;;;;;;;24.25;22.00;;;;;4.12;75.78;100587.94;4992209;28;45989;-39
2024/01/15 08:54:36;;;;;;;;;23.75;21.25;;;;;4.10;75.58;100587.22;4992104;28;45654;-39
2024/01/15 08:57:01;;;;;;;;;38.25;20.00;;;;;4.09;75.40;100590.78;4992176;28;45509;-40
2024/01/15 08:59:28;;;;;;;;;25.25;19.75;;;;;4.11;75.97;100587.13;4992134;28;45604;-39
2024/01/15 09:01:56;;;;;;;;;30.75;20.75;;;;;4.14;75.95;100600.06;4992345;28;46943;-39
2024/01/15 09:04:21;;;;;;;;;23.50;18.25;;;;;4.14;74.61;100597.44;4991659;28;45880;-38
2024/01/15 09:06:47;;;;;;;;;17.00;17.00;;;;;4.19;75.69;100605.00;4992374;28;45441;-38
2024/01/15 09:09:14;;;;;;;;;25.75;21.25;;;;;4.17;75.06;100612.16;4992273;28;45464;-40
2024/01/15 09:11:42;;;;;;;;;21.75;19.00;;;;;4.21;75.10;100609.22;4992035;28;46429;-38
2024/01/15 09:14:08;;;;;;;;;18.25;14.75;;;;;4.07;73.90;100585.66;4988716;28;45504;-39
2024/01/15 09:16:33;;;;;;;;;21.25;14.25;;;;;4.27;74.03;100621.09;4991893;28;45421;-39
2024/01/15 09:18:59;;;;;;;;;27.25;18.00;;;;;4.21;74.13;100600.47;4992163;28;45386;-39
2024/01/15 09:21:25;;;;;;;;;20.00;16.50;;;;;4.30;73.45;100614.75;4991892;28;47352;-38
2024/01/15 09:23:50;;;;;;;;;24.25;15.75;;;;;4.22;74.18;100600.38;4992120;28;45459;-38
2024/01/15 09:26:16;;;;;;;;;23.50;17.75;;;;;4.36;73.73;100612.53;4991911;28;45567;-38
2024/01/15 09:28:41;;;;;;;;;13.75;12.75;;;;;3.99;72.76;100559.03;4992342;28;45443;-39
2024/01/15 09:31:07;;;;;;;;;15.50;15.50;;;;;4.39;72.52;100616.75;4991432;28;46176;-41
2024/01/15 09:33:32;;;;;;;;;25.75;15.50;;;;;4.24;72.45;100577.38;4990851;28;45355;-39
2024/01/15 09:36:02;;;;;;;;;17.75;13.50;;;;;4.54;71.90;100628.81;4992131;28;45462;-39
2024/01/15 09:38:27;;;;;;;;;20.25;16.25;;;;;4.62;71.60;100630.88;5007489;28;45805;-39
2024/01/15 09:40:53;;;;;;;;;14.50;14.00;;;;;4.67;71.50;100624.31;4991440;28;45389;-39
2024/01/15 09:43:19;;;;;;;;;19.50;18.25;;;;;4.64;70.79;100614.03;4991302;28;45616;-39
2024/01/15 09:45:44;;;;;;;;;13.00;13.00;;;;;4.65;70.78;100615.69;4991922;28;45329;-40
2024/01/15 09:48:10;;;;;;;;;17.00;13.50;;;;;4.70;70.12;100636.44;4991483;28;45590;-39
2024/01/15 09:50:36;;;;;;;;;26.25;16.25;;;;;4.84;69.94;100636.25;4991653;28;46525;-39
2024/01/15 09:53:04;;;;;;;;;19.75;14.50;;;;;6.77;67.50;100639.00;4991594;28;45565;-39
2024/01/15 09:55:29;;;;;;;;;18.50;15.00;;;;;8.90;63.64;100618.94;4991741;28;45476;-39
2024/01/15 09:57:56;;;;;;;;;16.25;15.00;;;;;10.52;59.69;100619.63;4991356;28;45394;-39
2024/01/15 10:00:22;;;;;;;;;20.75;16.00;;;;;11.97;55.17;100622.84;4991616;28;45699;-39
2024/01/15 10:02:48;;;;;;;;;14.33;11.00;;;;;13.08;51.26;100622.69;4990716;28;45386;-40
2024/01/15 10:05:13;;;;;;;;;15.33;7.67;;;;;14.13;49.07;100623.56;4991343;28;45820;-39
2024/01/15 10:07:40;;;;;;;;;13.33;11.67;;;;;14.53;47.49;100619.91;4989664;28;45457;-40
2024/01/15 10:10:07;;;;;;;;;14.33;10.33;;;;;13.18;47.62;100628.69;4991416;28;46434;-40
2024/01/15 10:12:32;;;;;;;;;13.33;9.00;;;;;11.98;48.81;100629.84;4991197;28;45488;-39
2024/01/15 10:14:58;;;;;;;;;15.33;8.33;;;;;11.85;48.20;100640.13;4991620;28;45481;-39
2024/01/15 10:17:25;;;;;;;;;17.67;11.67;;;;;13.27;47.06;100629.56;4991960;28;45496;-39
2024/01/15 10:19:50;;;;;;;;;13.00;11.00;;;;;14.47;44.40;100623.25;4991163;28;46020;-39
2024/01/15 10:22:15;;;;;;;;;13.00;9.00;;;;;15.28;42.54;100632.63;4991306;28;46307;-40
2024/01/15 10:24:41;;;;;;;;;16.00;13.00;;;;;16.09;41.72;100617.59;4990917;28;45343;-40
2024/01/15 10:27:10;;;;;;;;;10.33;7.67;;;;;16.81;40.09;100611.50;4991076;28;45369;-38
2024/01/15 10:29:36;;;;;;;;;8.00;7.33;;;;;17.28;42.30;100617.31;4991280;28;46363;-39
2024/01/15 10:32:06;;;;;;;;;7.00;7.00;;;;;17.64;37.11;100615.31;4991125;28;45876;-39
2024/01/15 10:34:31;;;;;;;;;9.33;7.33;;;;;17.89;36.18;100623.78;4991251;28;45433;-39
2024/01/15 10:36:56;;;;;;;;;8.67;8.67;;;;;18.16;37.91;100615.88;4992458;28;45609;-39
2024/01/15 10:39:23;;;;;;;;;9.00;8.33;;;;;18.25;38.74;100614.69;4990544;28;47099;-39
2024/01/15 10:41:49;;;;;;;;;11.00;9.00;;;;;17.84;36.24;100626.25;4991080;28;45508;-39
2024/01/15 10:44:14;;;;;;;;;7.33;5.33;;;;;17.27;36.95;100626.38;4990795;28;45552;-39
2024/01/15 10:46:40;;;;;;;;;11.00;8.67;;;;;16.25;37.81;100630.00;4991160;28;45467;-39
2024/01/15 10:49:06;;;;;;;;;13.67;9.67;;;;;15.54;39.70;100632.22;4990560;28;45498;-38
2024/01/15 10:51:32;;;;;;;;;11.00;8.00;;;;;15.09;39.54;100642.00;4990859;28;45580;-39
2024/01/15 10:53:59;;;;;;;;;7.67;6.00;;;;;15.51;38.65;100640.66;4987912;28;45529;-39
2024/01/15 10:56:26;;;;;;;;;8.67;7.67;;;;;16.21;38.11;100629.53;4990921;28;45505;-37
2024/01/15 10:58:52;;;;;;;;;5.33;4.67;;;;;17.27;35.87;100621.84;4993103;28;45809;-39
2024/01/15 11:01:19;;;;;;;;;6.00;5.00;;;;;17.47;35.90;100635.47;4993803;28;45410;-40
2024/01/15 11:03:45;;;;;;;;;4.33;4.33;;;;;18.10;35.39;100625.56;4993820;28;45870;-39
2024/01/15 11:06:19;;;;;;;;;7.67;4.33;;;;;17.30;35.07;100632.22;4993855;28;45485;-38
2024/01/15 11:08:49;;;;;;;;;4.00;4.00;;;;;16.93;35.57;100647.56;4993638;28;45496;-38